createdAt,value
2019-06-10T00:00:43.556Z,87.10
2019-06-10T00:03:16.611Z,86.00
2019-06-10T00:05:48.603Z,86.70
2019-06-10T00:08:20.855Z,88.10
2019-06-10T00:10:52.552Z,88.70
2019-06-10T00:13:25.898Z,90.70
2019-06-10T00:16:03.435Z,91.60
2019-06-10T00:18:43.134Z,91.10
2019-06-10T00:21:12.323Z,88.20
2019-06-10T00:23:43.575Z,87.00
2019-06-10T00:26:15.196Z,86.60
2019-06-10T00:29:21.979Z,87.50
2019-06-10T00:41:05.678Z,92.70
2019-06-10T00:43:35.761Z,92.90
2019-06-10T00:46:08.605Z,93.80
2019-06-10T00:48:40.992Z,93.70
2019-06-10T00:51:13.231Z,92.90
2019-06-10T00:53:44.789Z,92.20
2019-06-10T00:56:16.122Z,90.90
2019-06-10T00:58:47.581Z,89.20
2019-06-10T01:01:21.749Z,87.80
2019-06-10T01:03:52.901Z,85.60
2019-06-10T01:06:24.324Z,85.90
2019-06-10T01:08:55.646Z,88.30
2019-06-10T01:11:27.423Z,90.10
2019-06-10T01:14:01.448Z,90.20
2019-06-10T01:16:32.494Z,90.20
2019-06-10T01:19:03.862Z,89.40
2019-06-10T01:21:35.369Z,87.90
2019-06-10T01:24:07.082Z,85.20
2019-06-10T01:26:41.054Z,82.70
2019-06-10T01:29:13.941Z,82.20
2019-06-10T01:31:45.709Z,84.50
2019-06-10T01:34:18.292Z,88.80
2019-06-10T01:36:52.545Z,90.60
2019-06-10T01:39:25.437Z,91.80
2019-06-10T01:41:56.704Z,92.40
2019-06-10T01:44:28.022Z,92.20
2019-06-10T01:47:00.975Z,91.60
2019-06-10T01:49:32.382Z,92.60
2019-06-10T01:52:03.763Z,92.20
2019-06-10T01:54:35.285Z,92.40
2019-06-10T01:57:07.736Z,92.70
2019-06-10T01:59:41.181Z,93.20
2019-06-10T02:02:16.162Z,93.00
2019-06-10T02:04:46.742Z,93.60
2019-06-10T02:07:18.835Z,94.00
2019-06-10T02:09:51.749Z,94.10
2019-06-10T02:12:24.228Z,94.20
2019-06-10T02:14:56.159Z,93.30
2019-06-10T02:17:27.714Z,93.40
2019-06-10T02:20:01.132Z,90.80
2019-06-10T02:22:33.892Z,88.70
2019-06-10T02:25:06.496Z,89.20
2019-06-10T02:27:37.841Z,86.80
2019-06-10T02:30:18.941Z,86.60
2019-06-10T02:32:43.673Z,91.70
2019-06-10T02:35:26.264Z,92.70
2019-06-10T02:37:48.680Z,93.90
2019-06-10T02:40:25.607Z,94.50
2019-06-10T02:42:54.551Z,94.70
2019-06-10T02:45:32.552Z,95.40
2019-06-10T02:47:58.933Z,95.30
2019-06-10T02:50:53.872Z,95.70
2019-06-10T02:53:30.888Z,95.90
2019-06-10T02:55:58.508Z,96.00
2019-06-10T02:58:34.184Z,96.10
2019-06-10T03:01:04.312Z,96.10
2019-06-10T03:03:43.690Z,96.20
2019-06-10T03:06:09.227Z,96.20
2019-06-10T03:08:43.784Z,96.50
2019-06-10T03:11:14.253Z,96.10
2019-06-10T03:13:46.160Z,95.60
2019-06-10T03:16:19.943Z,95.70
2019-06-10T03:18:52.575Z,95.80
2019-06-10T03:21:25.677Z,96.00
2019-06-10T03:23:56.836Z,96.30
2019-06-10T03:26:28.028Z,97.10
2019-06-10T03:28:59.327Z,97.40
2019-06-10T03:31:40.385Z,97.70
2019-06-10T03:34:05.462Z,98.10
2019-06-10T03:36:37.824Z,98.20
2019-06-10T03:39:13.110Z,98.50
2019-06-10T03:41:43.284Z,98.80
2019-06-10T03:44:14.614Z,99.00
2019-06-10T03:46:45.831Z,97.20
2019-06-10T03:49:17.196Z,96.90
2019-06-10T03:51:48.410Z,96.50
2019-06-10T03:54:22.758Z,96.50
2019-06-10T03:56:52.711Z,97.20
2019-06-10T03:59:25.933Z,97.50
2019-06-10T04:01:57.853Z,97.90
2019-06-10T04:04:29.094Z,98.20
2019-06-10T04:07:03.593Z,98.30
2019-06-10T04:09:33.358Z,98.00
2019-06-10T04:12:04.553Z,97.60
2019-06-10T04:14:35.868Z,97.50
2019-06-10T04:17:07.092Z,98.30
2019-06-10T04:19:38.469Z,98.30
2019-06-10T04:22:09.768Z,92.80
2019-06-10T04:24:43.123Z,96.30
2019-06-10T04:27:14.103Z,91.20
2019-06-10T04:29:45.471Z,88.90
2019-06-10T04:32:24.552Z,88.80
2019-06-10T04:34:56.272Z,92.10
2019-06-10T04:37:29.441Z,93.30
2019-06-10T04:40:03.867Z,93.70
2019-06-10T04:42:35.118Z,93.80
2019-06-10T04:45:07.366Z,93.70
2019-06-10T04:47:38.559Z,94.40
2019-06-10T04:50:24.165Z,95.30
2019-06-10T04:52:43.520Z,95.90
2019-06-10T04:55:15.019Z,96.40
2019-06-10T04:57:46.820Z,97.30
2019-06-10T05:00:19.202Z,98.00
2019-06-10T05:02:52.338Z,96.00
2019-06-10T05:05:25.306Z,92.50
2019-06-10T05:07:56.701Z,94.50
2019-06-10T05:10:29.930Z,92.70
2019-06-10T05:13:03.131Z,91.60
2019-06-10T05:15:35.047Z,92.60
2019-06-10T05:18:06.409Z,91.30
2019-06-10T05:20:51.979Z,90.20
2019-06-10T05:23:12.823Z,87.70
2019-06-10T05:25:44.169Z,90.80
2019-06-10T05:28:16.008Z,91.40
2019-06-10T05:30:48.005Z,88.20
2019-06-10T05:33:20.789Z,84.60
2019-06-10T05:35:53.294Z,81.20
2019-06-10T05:38:26.790Z,80.60
2019-06-10T05:40:57.772Z,78.80
2019-06-10T05:43:29.691Z,77.30
2019-06-10T05:46:02.872Z,87.50
2019-06-10T05:48:35.137Z,89.00
2019-06-10T05:51:07.210Z,85.30
2019-06-10T05:53:38.476Z,80.40
2019-06-10T05:56:09.703Z,82.00
2019-06-10T05:58:43.338Z,88.30
2019-06-10T06:01:14.555Z,95.90
2019-06-10T06:03:46.452Z,95.40
2019-06-10T06:06:18.365Z,94.50
2019-06-10T06:08:50.227Z,93.50
2019-06-10T06:11:23.200Z,93.10
2019-06-10T06:13:55.100Z,92.60
2019-06-10T06:16:27.650Z,92.20
2019-06-10T06:19:00.465Z,91.80
2019-06-10T06:21:39.349Z,92.30
2019-06-10T06:24:08.508Z,92.00
2019-06-10T06:26:43.231Z,91.00
2019-06-10T06:29:13.996Z,91.20
2019-06-10T06:31:45.870Z,91.20
2019-06-10T06:34:17.824Z,92.30
2019-06-10T06:36:49.698Z,93.90
2019-06-10T06:39:24.152Z,94.00
2019-06-10T06:41:56.734Z,93.90
2019-06-10T06:44:29.621Z,94.50
2019-06-10T06:47:02.673Z,94.20
2019-06-10T06:49:37.088Z,95.60
2019-06-10T06:52:09.370Z,96.00
2019-06-10T06:54:42.473Z,94.00
2019-06-10T06:57:22.377Z,93.50
2019-06-10T06:59:54.989Z,92.70
2019-06-10T07:02:27.660Z,93.20
2019-06-10T07:05:00.137Z,93.30
2019-06-10T07:07:33.110Z,93.80
2019-06-10T07:10:12.215Z,94.60
2019-06-10T07:12:46.146Z,96.00
2019-06-10T07:15:22.469Z,96.90
2019-06-10T07:17:54.494Z,97.60
2019-06-10T07:20:26.255Z,97.30
2019-06-10T07:22:58.114Z,95.90
2019-06-10T07:25:32.135Z,97.40
2019-06-10T07:28:03.494Z,97.80
2019-06-10T07:30:38.825Z,97.40
2019-06-10T07:33:12.101Z,97.90
2019-06-10T07:35:45.162Z,98.10
2019-06-10T07:38:17.594Z,97.30
2019-06-10T07:40:49.425Z,97.70
2019-06-10T07:43:23.110Z,97.40
2019-06-10T07:45:54.999Z,97.70
2019-06-10T07:48:26.814Z,95.50
2019-06-10T07:50:58.717Z,96.30
2019-06-10T07:53:33.157Z,96.80
2019-06-10T07:56:05.451Z,97.50
2019-06-10T07:58:38.845Z,97.60
2019-06-10T08:01:13.210Z,98.20
2019-06-10T08:03:46.468Z,95.40
2019-06-10T08:06:18.156Z,96.10
2019-06-10T08:08:52.842Z,95.30
2019-06-10T08:11:23.545Z,94.20
2019-06-10T08:13:55.561Z,91.40
2019-06-10T08:16:27.522Z,90.50
2019-06-10T08:19:21.883Z,92.20
2019-06-10T08:21:32.815Z,95.30
2019-06-10T08:24:04.729Z,97.20
2019-06-10T08:26:37.287Z,97.90
2019-06-10T08:29:09.158Z,97.80
2019-06-10T08:31:44.463Z,93.30
2019-06-10T08:34:14.524Z,95.60
2019-06-10T08:36:50.069Z,95.60
2019-06-10T08:39:22.450Z,97.10
2019-06-10T08:41:53.391Z,93.90
2019-06-10T08:44:25.234Z,96.80
2019-06-10T08:46:57.091Z,94.10
2019-06-10T08:49:29.109Z,97.90
2019-06-10T08:52:02.676Z,99.20
2019-06-10T08:54:34.425Z,99.90
2019-06-10T08:57:06.237Z,97.90
2019-06-10T08:59:39.703Z,97.20
2019-06-10T09:02:12.374Z,95.90
2019-06-10T09:04:48.499Z,94.90
2019-06-10T09:07:17.899Z,93.10
2019-06-10T09:09:51.114Z,90.60
2019-06-10T09:12:30.397Z,93.10
2019-06-10T09:14:56.741Z,92.50
2019-06-10T09:17:28.510Z,94.30
2019-06-10T09:20:02.528Z,95.80
2019-06-10T09:22:33.822Z,95.30
2019-06-10T09:25:08.467Z,96.40
2019-06-10T09:27:42.524Z,94.90
2019-06-10T09:30:15.067Z,95.10
2019-06-10T09:32:51.130Z,94.10
2019-06-10T09:35:23.334Z,94.30
2019-06-10T09:37:55.844Z,95.10
2019-06-10T09:40:50.520Z,93.90
2019-06-10T09:43:22.557Z,96.60
2019-06-10T09:45:56.443Z,96.20
2019-06-10T09:48:28.307Z,96.00
2019-06-10T09:51:02.504Z,95.40
2019-06-10T09:53:42.226Z,95.80
2019-06-10T09:56:07.270Z,95.80
2019-06-10T09:58:39.031Z,95.30
2019-06-10T10:01:13.372Z,95.60
2019-06-10T10:03:47.964Z,94.60
2019-06-10T10:06:17.893Z,94.80
2019-06-10T10:08:53.860Z,94.70
2019-06-10T10:11:24.906Z,93.50
2019-06-10T10:13:56.776Z,94.70
2019-06-10T10:16:28.782Z,92.10
2019-06-10T10:19:04.337Z,91.80
2019-06-10T10:21:34.011Z,90.50
2019-06-10T10:24:10.498Z,91.50
2019-06-10T10:26:39.542Z,90.00
2019-06-10T10:29:13.002Z,90.00
2019-06-10T10:31:48.757Z,90.70
2019-06-10T10:34:18.562Z,90.80
2019-06-10T10:36:55.020Z,85.20
2019-06-10T10:39:24.659Z,81.60
2019-06-10T10:41:57.330Z,82.80
2019-06-10T10:44:29.288Z,82.50
2019-06-10T10:47:03.661Z,88.20
2019-06-10T10:49:35.676Z,85.40
2019-06-10T10:52:07.480Z,87.90
2019-06-10T10:54:39.652Z,86.40
2019-06-10T10:57:14.017Z,90.30
2019-06-10T10:59:46.582Z,84.10
2019-06-10T11:02:19.804Z,82.00
2019-06-10T11:04:55.100Z,84.30
2019-06-10T11:07:25.272Z,86.10
2019-06-10T11:09:57.273Z,80.80
2019-06-10T11:12:33.072Z,76.90
2019-06-10T11:15:08.566Z,81.20
2019-06-10T11:17:42.517Z,77.70
2019-06-10T11:20:22.458Z,79.90
2019-06-10T11:23:02.966Z,82.30
2019-06-10T11:26:14.907Z,82.80
2019-06-10T11:28:54.454Z,79.70
2019-06-10T11:31:26.377Z,78.10
2019-06-10T11:33:59.191Z,76.00
2019-06-10T11:36:31.292Z,77.20
2019-06-10T11:39:06.318Z,80.50
2019-06-10T11:41:38.479Z,81.60
2019-06-10T11:44:10.529Z,80.80
2019-06-10T11:46:43.085Z,79.40
2019-06-10T11:49:15.783Z,77.80
2019-06-10T11:51:47.526Z,75.00
2019-06-10T11:54:19.354Z,74.90
2019-06-10T11:56:54.625Z,76.10
2019-06-10T11:59:24.968Z,76.80
2019-06-10T12:01:59.938Z,77.20
2019-06-10T12:04:30.269Z,72.50
2019-06-10T12:07:02.465Z,71.50
2019-06-10T12:09:34.336Z,65.90
2019-06-10T12:12:06.093Z,64.80
2019-06-10T12:14:37.935Z,67.70
2019-06-10T12:17:27.523Z,66.40
2019-06-10T12:19:44.232Z,64.70
2019-06-10T12:22:16.444Z,61.70
2019-06-10T12:24:50.224Z,64.00
2019-06-10T12:27:22.148Z,61.30
2019-06-10T12:29:56.356Z,63.30
2019-06-10T12:32:27.486Z,64.00
2019-06-10T12:34:59.730Z,63.30
2019-06-10T12:37:33.662Z,61.50
2019-06-10T12:40:12.761Z,59.80
2019-06-10T12:42:44.706Z,61.60
2019-06-10T12:45:18.434Z,61.40
2019-06-10T12:47:50.424Z,60.30
2019-06-10T12:50:24.863Z,60.40
2019-06-10T12:52:57.898Z,62.10
2019-06-10T12:55:46.364Z,63.20
2019-06-10T12:58:14.862Z,65.60
2019-06-10T13:00:53.239Z,66.40
2019-06-10T13:03:25.106Z,66.10
2019-06-10T13:06:00.229Z,64.20
2019-06-10T13:08:36.975Z,65.10
2019-06-10T13:11:08.857Z,66.30
2019-06-10T13:13:42.573Z,65.40
2019-06-10T13:16:14.650Z,66.30
2019-06-10T13:18:46.497Z,67.10
2019-06-10T13:21:19.453Z,66.80
2019-06-10T13:23:53.370Z,68.80
2019-06-10T13:26:27.996Z,70.50
2019-06-10T13:29:00.982Z,68.30
2019-06-10T13:31:33.792Z,70.90
2019-06-10T13:34:12.122Z,70.60
2019-06-10T13:36:43.712Z,68.00
2019-06-10T13:39:15.544Z,69.50
2019-06-10T13:41:47.585Z,69.40
2019-06-10T13:44:19.579Z,69.70
2019-06-10T13:46:53.190Z,74.10
2019-06-10T13:49:26.994Z,72.00
2019-06-10T13:54:55.060Z,69.70
2019-06-10T13:57:27.047Z,70.40
2019-06-10T13:59:59.287Z,72.00
2019-06-10T14:02:32.320Z,73.60
2019-06-10T14:05:10.273Z,72.90
2019-06-10T14:07:38.861Z,75.00
2019-06-10T14:10:17.852Z,70.70
2019-06-10T14:12:49.008Z,72.70
2019-06-10T14:15:22.415Z,66.60
2019-06-10T14:17:54.047Z,66.20
2019-06-10T14:20:27.442Z,67.60
2019-06-10T14:22:59.290Z,67.80
2019-06-10T14:25:33.074Z,68.70
2019-06-10T14:28:07.681Z,68.70
2019-06-10T14:30:38.209Z,67.90
2019-06-10T14:33:11.955Z,67.80
2019-06-10T14:35:45.203Z,69.40
2019-06-10T14:38:16.972Z,70.10
2019-06-10T14:40:48.843Z,70.70
2019-06-10T14:43:23.339Z,71.20
2019-06-10T14:45:54.335Z,71.50
2019-06-10T14:48:26.268Z,70.70
2019-06-10T14:50:58.096Z,69.60
2019-06-10T14:53:30.001Z,67.60
2019-06-10T14:56:03.649Z,67.40
2019-06-10T14:58:35.272Z,67.70
2019-06-10T15:01:09.449Z,66.40
2019-06-10T15:03:42.778Z,64.80
2019-06-10T15:06:15.622Z,65.60
2019-06-10T15:08:48.669Z,63.70
2019-06-10T15:11:23.282Z,65.70
2019-06-10T15:13:54.044Z,64.10
2019-06-10T15:16:25.838Z,62.90
2019-06-10T15:19:13.781Z,64.60
2019-06-10T15:21:35.330Z,65.00
2019-06-10T15:24:07.828Z,65.20
2019-06-10T15:26:45.838Z,65.10
2019-06-10T15:29:18.966Z,66.30
2019-06-10T15:32:07.884Z,65.90
2019-06-10T15:34:24.812Z,66.30
2019-06-10T15:36:56.724Z,65.50
2019-06-10T15:39:28.691Z,65.40
2019-06-10T15:42:02.825Z,65.20
2019-06-10T15:44:48.852Z,66.80
2019-06-10T15:47:07.427Z,64.40
2019-06-10T15:49:39.356Z,64.40
2019-06-10T15:52:13.923Z,63.60
2019-06-10T15:54:45.665Z,65.20
2019-06-10T15:57:30.754Z,63.30
2019-06-10T15:59:52.233Z,62.90
2019-06-10T16:02:25.557Z,63.20
2019-06-10T16:04:57.709Z,64.20
2019-06-10T16:07:29.587Z,64.90
2019-06-10T16:10:02.832Z,63.90
2019-06-10T16:12:35.938Z,64.30
2019-06-10T16:15:09.030Z,63.70
2019-06-10T16:17:43.019Z,64.10
2019-06-10T16:20:16.022Z,64.60
2019-06-10T16:22:48.304Z,63.70
2019-06-10T16:25:20.357Z,65.80
2019-06-10T16:27:54.482Z,66.90
2019-06-10T16:30:26.119Z,66.30
2019-06-10T16:32:58.031Z,64.90
2019-06-10T16:35:32.264Z,65.40
2019-06-10T16:38:03.487Z,65.90
2019-06-10T16:40:35.430Z,65.70
2019-06-10T16:43:07.338Z,64.00
2019-06-10T16:45:39.220Z,63.00
2019-06-10T16:48:13.061Z,62.20
2019-06-10T16:50:47.173Z,61.70
2019-06-10T16:53:19.907Z,62.90
2019-06-10T16:55:54.071Z,62.60
2019-06-10T16:58:28.505Z,62.80
2019-06-10T17:01:03.829Z,63.00
2019-06-10T17:09:45.692Z,64.10
2019-06-10T17:12:17.861Z,62.00
2019-06-10T17:14:52.533Z,63.20
2019-06-10T17:17:25.180Z,63.00
2019-06-10T17:19:57.044Z,63.10
2019-06-10T17:22:30.323Z,63.40
2019-06-10T17:25:03.370Z,63.60
2019-06-10T17:27:35.495Z,63.30
2019-06-10T17:30:09.519Z,63.90
2019-06-10T17:32:42.583Z,63.50
2019-06-10T17:35:14.759Z,63.00
2019-06-10T17:37:46.686Z,62.70
2019-06-10T17:40:20.486Z,62.60
2019-06-10T17:42:53.242Z,62.50
2019-06-10T17:45:27.445Z,62.90
2019-06-10T17:47:59.845Z,62.10
2019-06-10T17:50:32.887Z,62.60
2019-06-10T17:53:05.166Z,62.90
2019-06-10T17:55:37.092Z,62.30
2019-06-10T17:58:08.875Z,63.70
2019-06-10T18:00:42.250Z,62.60
2019-06-10T18:03:14.283Z,64.20
2019-06-10T18:05:47.628Z,63.40
2019-06-10T18:08:22.363Z,63.40
2019-06-10T18:10:53.807Z,63.40
2019-06-10T18:13:26.262Z,64.10
2019-06-10T18:19:30.589Z,64.40
2019-06-10T18:22:04.055Z,64.90
2019-06-10T18:24:36.064Z,65.00
2019-06-10T18:29:57.835Z,65.70
2019-06-10T18:36:02.010Z,68.30
2019-06-10T18:42:06.827Z,67.30
2019-06-10T18:52:01.639Z,66.60
2019-06-10T18:58:05.720Z,67.70
2019-06-10T19:04:12.840Z,69.00
2019-06-10T19:06:44.046Z,68.50
2019-06-10T19:09:15.989Z,69.30
2019-06-10T19:11:47.841Z,68.80
2019-06-10T19:17:07.686Z,70.50
2019-06-10T19:19:40.283Z,72.10
2019-06-10T19:22:13.231Z,72.00
2019-06-10T19:24:44.991Z,73.40
2019-06-10T19:27:16.321Z,73.70
2019-06-10T19:29:51.317Z,74.00
2019-06-10T19:32:20.417Z,73.30
2019-06-10T19:34:52.120Z,73.10
2019-06-10T19:37:24.843Z,73.20
2019-06-10T19:39:56.518Z,73.40
2019-06-10T19:42:29.080Z,74.00
2019-06-10T19:45:03.967Z,74.70
2019-06-10T19:47:37.998Z,73.90
2019-06-10T19:50:12.231Z,73.20
2019-06-10T19:52:45.349Z,73.80
2019-06-10T19:55:17.265Z,74.10
2019-06-10T19:57:49.630Z,73.50
2019-06-10T20:00:24.533Z,73.50
2019-06-10T20:02:55.973Z,72.90
2019-06-10T20:05:27.469Z,72.80
2019-06-10T20:07:59.067Z,72.20
2019-06-10T20:10:32.402Z,72.30
2019-06-10T20:13:05.345Z,72.20
2019-06-10T20:15:37.378Z,72.20
2019-06-10T20:18:09.123Z,72.20
2019-06-10T20:20:43.824Z,71.90
2019-06-10T20:23:16.311Z,71.50
2019-06-10T20:25:48.825Z,71.10
2019-06-10T20:28:22.350Z,71.70
2019-06-10T20:30:54.354Z,72.70
2019-06-10T20:33:27.103Z,73.40
2019-06-10T20:43:00.907Z,76.60
2019-06-10T20:45:33.382Z,78.50
2019-06-10T20:48:04.707Z,79.60
2019-06-10T20:50:35.912Z,80.70
2019-06-10T20:53:14.680Z,81.80
2019-06-10T20:55:48.264Z,82.20
2019-06-10T20:58:14.314Z,82.70
2019-06-10T21:00:52.262Z,82.90
2019-06-10T21:03:26.136Z,83.30
2019-06-10T21:06:04.286Z,83.50
2019-06-10T21:08:37.389Z,83.90
2019-06-10T21:11:09.350Z,84.10
2019-06-10T21:13:43.643Z,84.00
2019-06-10T21:16:13.732Z,84.40
2019-06-10T21:18:48.467Z,84.30
2019-06-10T21:21:19.121Z,84.80
2019-06-10T21:23:51.782Z,85.80
2019-06-10T21:26:25.201Z,85.90
2019-06-10T21:29:03.834Z,86.60
2019-06-10T21:31:36.679Z,86.20
2019-06-10T21:34:12.189Z,86.40
2019-06-10T21:36:43.385Z,86.70
2019-06-10T21:39:15.208Z,87.50
2019-06-10T21:41:48.209Z,88.00
2019-06-10T21:44:20.047Z,88.50
2019-06-10T21:46:52.293Z,89.70
2019-06-10T21:49:26.578Z,90.30
2019-06-10T21:51:59.431Z,91.20
2019-06-10T21:54:32.900Z,91.80
2019-06-10T21:57:04.304Z,92.40
2019-06-10T21:59:35.653Z,93.00
2019-06-10T22:02:07.404Z,92.30
2019-06-10T22:04:39.201Z,91.90
2019-06-10T22:07:12.449Z,91.60
2019-06-10T22:09:45.938Z,91.20
2019-06-10T22:12:21.831Z,91.30
2019-06-10T22:14:54.660Z,91.20
2019-06-10T22:17:26.803Z,91.40
2019-06-10T22:19:58.360Z,91.70
2019-06-10T22:22:29.615Z,92.00
2019-06-10T22:25:02.976Z,91.80
2019-06-10T22:27:34.331Z,91.60
2019-06-10T22:30:11.354Z,91.40
2019-06-10T22:32:42.953Z,91.30
2019-06-10T22:35:14.395Z,91.50
2019-06-10T22:37:46.164Z,91.30
2019-06-10T22:40:17.516Z,91.50
2019-06-10T22:42:49.341Z,91.90
2019-06-10T22:45:21.175Z,92.00
2019-06-10T22:47:54.104Z,92.50
2019-06-10T22:50:25.940Z,92.70
2019-06-10T22:52:57.737Z,92.60
2019-06-10T22:55:32.003Z,93.00
2019-06-10T22:58:05.901Z,93.50
2019-06-10T23:00:36.017Z,93.60
2019-06-10T23:03:07.264Z,93.40
2019-06-10T23:05:38.490Z,92.70
2019-06-10T23:08:12.666Z,92.70
2019-06-10T23:10:43.343Z,92.50
2019-06-10T23:13:17.012Z,92.20
2019-06-10T23:15:48.764Z,92.40
2019-06-10T23:18:22.420Z,92.00
2019-06-10T23:20:56.239Z,92.40
2019-06-10T23:23:28.691Z,92.50
2019-06-10T23:26:02.764Z,91.90
2019-06-10T23:28:34.010Z,92.00
2019-06-10T23:31:05.900Z,91.80
2019-06-10T23:33:37.706Z,91.40
2019-06-10T23:36:09.088Z,91.30
2019-06-10T23:38:43.078Z,91.60
2019-06-10T23:41:13.848Z,92.00
2019-06-10T23:43:45.117Z,91.90
2019-06-10T23:46:16.394Z,91.50
2019-06-10T23:48:47.575Z,91.50
2019-06-10T23:51:18.896Z,92.10
2019-06-10T23:53:55.287Z,91.70
2019-06-10T23:56:23.743Z,91.40
2019-06-10T23:58:55.976Z,91.10
